Time;durP1;ratioP1;P1;durP2;ratioP2;P2;SDS_P1;SDS_P2;PMS_P1;PMS_P2;Temp;Humidity;BMP_temperature;BMP_pressure;BME280_temperature;BME280_humidity;BME280_pressure;Samples;Min_cycle;Max_cycle;Signal;HPM_P1;HPM_P2
2021/07/04 00:07:12;;;;;;;13.2;9.9;;;;;;;16.71;100;98268.78;;;;
2021/07/04 00:17:11;;;;;;;14.4;10.9;;;;;;;16.67;100;98267.91;;;;
2021/07/04 00:27:11;;;;;;;13.4;12;;;;;;;16.59;100;98252.59;;;;
2021/07/04 00:37:11;;;;;;;12.2;9.8;;;;;;;16.36;100;98248.9;;;;
2021/07/04 00:47:10;;;;;;;14.7;10.8;;;;;;;15.87;100;98251.2;;;;
2021/07/04 00:57:10;;;;;;;15;10.2;;;;;;;15.79;100;98247.5;;;;
2021/07/04 01:07:09;;;;;;;12.4;10.2;;;;;;;15.65;100;98247.16;;;;
2021/07/04 01:17:09;;;;;;;19.3;12;;;;;;;15.38;100;98254.16;;;;
2021/07/04 01:27:08;;;;;;;12.1;9.8;;;;;;;15.07;100;98252.14;;;;
2021/07/04 01:37:08;;;;;;;18.8;12.6;;;;;;;14.98;100;98251.5;;;;
2021/07/04 01:47:07;;;;;;;12.3;10.5;;;;;;;14.88;100;98254.7;;;;
2021/07/04 01:57:13;;;;;;;14.7;11;;;;;;;14.81;100;98238.21;;;;
2021/07/04 02:07:06;;;;;;;16.5;11.2;;;;;;;14.74;100;98251.56;;;;
2021/07/04 02:17:05;;;;;;;17.6;13.7;;;;;;;14.62;100;98254.28;;;;
2021/07/04 02:27:05;;;;;;;15.3;11.2;;;;;;;14.57;100;98265.38;;;;
2021/07/04 02:37:04;;;;;;;12.3;9.8;;;;;;;14.51;100;98266.73;;;;
2021/07/04 02:47:03;;;;;;;16.6;11.1;;;;;;;14.48;100;98273.63;;;;
2021/07/04 02:57:05;;;;;;;12.3;10;;;;;;;14.3;100;98272.24;;;;
2021/07/04 03:07:02;;;;;;;12.8;10.8;;;;;;;14.26;100;98279.49;;;;
2021/07/04 03:17:01;;;;;;;14.6;11.8;;;;;;;14.18;100;98274.97;;;;
2021/07/04 03:27:01;;;;;;;16.7;10.5;;;;;;;14.3;100;98283.09;;;;
2021/07/04 03:37:00;;;;;;;15;12.2;;;;;;;14.3;100;98291.22;;;;
2021/07/04 03:46:59;;;;;;;13.9;9.7;;;;;;;14.56;100;98299.84;;;;
2021/07/04 03:56:59;;;;;;;15.5;11.6;;;;;;;14.88;100;98311.69;;;;
2021/07/04 04:06:58;;;;;;;21;12.1;;;;;;;15.31;100;98315.63;;;;
2021/07/04 04:16:57;;;;;;;10;9;;;;;;;15.57;100;98311.38;;;;
2021/07/04 04:26:57;;;;;;;16.1;9.6;;;;;;;15.6;100;98309.89;;;;
2021/07/04 04:36:56;;;;;;;12.5;9.9;;;;;;;15.65;100;98314.29;;;;
2021/07/04 04:46:56;;;;;;;10;8.8;;;;;;;15.7;100;98312.1;;;;
2021/07/04 04:56:55;;;;;;;13.8;10;;;;;;;15.95;100;98312.76;;;;
2021/07/04 05:06:55;;;;;;;12;9.2;;;;;;;16.51;100;98313.38;;;;
2021/07/04 05:16:54;;;;;;;19.7;15.3;;;;;;;16.8;100;98312.15;;;;
2021/07/04 05:26:54;;;;;;;16.9;12.7;;;;;;;17.14;100;98310.55;;;;
2021/07/04 05:36:54;;;;;;;16.9;15.1;;;;;;;17.43;100;98304.53;;;;
2021/07/04 05:46:53;;;;;;;23.2;16;;;;;;;17.75;100;98305.97;;;;
2021/07/04 05:56:53;;;;;;;19.5;14;;;;;;;18.14;100;98294.98;;;;
2021/07/04 06:06:53;;;;;;;18.1;13.3;;;;;;;18.53;100;98302.66;;;;
2021/07/04 06:16:53;;;;;;;16.1;12.7;;;;;;;18.85;100;98313.27;;;;
2021/07/04 06:26:53;;;;;;;15.6;11.8;;;;;;;19.13;100;98307.41;;;;
2021/07/04 06:36:53;;;;;;;22.5;13.8;;;;;;;19.44;100;98316.05;;;;
2021/07/04 06:46:53;;;;;;;29.2;14.1;;;;;;;19.46;100;98315.7;;;;
2021/07/04 06:56:53;;;;;;;14;10.3;;;;;;;19.82;100;98320.39;;;;
2021/07/04 07:06:53;;;;;;;11.6;8.9;;;;;;;20.21;100;98309.05;;;;
2021/07/04 07:16:53;;;;;;;13.7;9.1;;;;;;;20.61;100;98317.25;;;;
2021/07/04 07:26:53;;;;;;;9.9;7.1;;;;;;;20.77;100;98315.01;;;;
2021/07/04 07:36:53;;;;;;;13.9;7.7;;;;;;;20.96;100;98322.19;;;;
2021/07/04 07:46:53;;;;;;;11.4;7.1;;;;;;;21.13;100;98315.27;;;;
2021/07/04 07:56:53;;;;;;;10.9;7.5;;;;;;;21.57;100;98307.62;;;;
2021/07/04 08:06:53;;;;;;;12.3;6.1;;;;;;;21.93;100;98298.36;;;;
2021/07/04 08:16:53;;;;;;;11.8;7.2;;;;;;;21.97;100;98293.63;;;;
2021/07/04 08:26:54;;;;;;;16;7;;;;;;;22.06;100;98290.52;;;;
2021/07/04 08:36:54;;;;;;;10.5;7.8;;;;;;;22.3;99.44336;98287.02;;;;
2021/07/04 08:46:54;;;;;;;10.5;6.4;;;;;;;22.54;100;98286.22;;;;
2021/07/04 08:56:55;;;;;;;8.8;5.6;;;;;;;23.21;100;98279.83;;;;
2021/07/04 09:06:56;;;;;;;11.9;7.4;;;;;;;23.28;98.23926;98265.27;;;;
2021/07/04 09:16:56;;;;;;;10.4;6.2;;;;;;;23.31;98.7207;98269.97;;;;
2021/07/04 09:26:56;;;;;;;8.5;6.1;;;;;;;23.51;92.83789;98258.11;;;;
2021/07/04 09:36:57;;;;;;;8.5;6.7;;;;;;;23.87;95.75488;98246.9;;;;
2021/07/04 09:46:58;;;;;;;7.4;4.6;;;;;;;23.68;91.63281;98245.44;;;;
2021/07/04 09:57:05;;;;;;;5.6;4;;;;;;;23.76;92.85254;98229.67;;;;
2021/07/04 10:06:59;;;;;;;6.5;4.3;;;;;;;23.57;86.86328;98228.2;;;;
2021/07/04 10:16:59;;;;;;;16.9;4.8;;;;;;;24.65;88.04492;98224.22;;;;
2021/07/04 10:27:00;;;;;;;7.4;4.7;;;;;;;24.15;87.77441;98199.13;;;;
2021/07/04 10:37:01;;;;;;;7.7;4.7;;;;;;;24.43;87.27246;98193.36;;;;
2021/07/04 10:47:01;;;;;;;6.8;4.8;;;;;;;24.48;88.81348;98179.13;;;;
2021/07/04 10:57:02;;;;;;;7.1;5;;;;;;;24.3;89.3252;98168.28;;;;
2021/07/04 11:07:03;;;;;;;7.5;4.8;;;;;;;24.99;86.04395;98158.91;;;;
2021/07/04 11:17:06;;;;;;;12.2;6;;;;;;;24.71;84.44434;98150.94;;;;
2021/07/04 11:27:14;;;;;;;6.6;3.5;;;;;;;25.31;80.50293;98152.94;;;;
2021/07/04 11:37:05;;;;;;;8.4;5.6;;;;;;;24.72;81.64453;98147.76;;;;
2021/07/04 11:47:06;;;;;;;7.8;5.2;;;;;;;25.01;80.41504;98137.2;;;;
2021/07/04 12:07:08;;;;;;;8.2;3.9;;;;;;;25.67;77.90723;98123.66;;;;
2021/07/04 12:17:09;;;;;;;9.9;4.7;;;;;;;26.27;75.36719;98124.63;;;;
2021/07/04 12:27:09;;;;;;;7.9;4.2;;;;;;;25.92;69.71777;98110.22;;;;
2021/07/04 12:37:10;;;;;;;11;4.9;;;;;;;26.23;76.12012;98108.12;;;;
2021/07/04 12:47:11;;;;;;;7.6;4.1;;;;;;;25.91;70.10254;98105.89;;;;
2021/07/04 12:57:14;;;;;;;5.9;3.8;;;;;;;26.28;64.26074;98096.56;;;;
2021/07/04 13:07:19;;;;;;;5.5;3.3;;;;;;;26.55;66.50488;98081.85;;;;
2021/07/04 13:17:14;;;;;;;10;4.4;;;;;;;26.61;64.02637;98069.87;;;;
2021/07/04 13:27:15;;;;;;;5.5;3.8;;;;;;;27.44;64.0957;98059.34;;;;
2021/07/04 13:37:16;;;;;;;5.9;3.7;;;;;;;26.67;67.19336;98054.33;;;;
2021/07/04 13:47:17;;;;;;;9.8;4;;;;;;;26.98;65.34863;98047.36;;;;
2021/07/04 13:57:17;;;;;;;5.1;3.4;;;;;;;27.66;67.03516;98038.26;;;;
2021/07/04 14:07:18;;;;;;;5.9;3.7;;;;;;;27.4;60.92383;98030.96;;;;
2021/07/04 14:17:19;;;;;;;6;3.9;;;;;;;27.78;59.98535;98023.69;;;;
2021/07/04 14:27:20;;;;;;;6.7;4.4;;;;;;;27.72;59.68359;98028.2;;;;
2021/07/04 14:37:21;;;;;;;6.1;4.6;;;;;;;27.92;56.49805;98022.53;;;;
2021/07/04 14:47:22;;;;;;;5.5;3.5;;;;;;;28.2;61.43262;98019.02;;;;
2021/07/04 14:57:23;;;;;;;8;3.8;;;;;;;28.04;55.47363;98012.73;;;;
2021/07/04 15:07:24;;;;;;;5.8;3.4;;;;;;;30.08;51.71094;98022.24;;;;
2021/07/04 15:17:26;;;;;;;8;3.9;;;;;;;32.29;51.19727;98016.61;;;;
2021/07/04 15:27:27;;;;;;;5.9;3.1;;;;;;;31.76;43.96191;98012.57;;;;
2021/07/04 15:37:29;;;;;;;7;3.8;;;;;;;33.22;41.63281;98002.72;;;;
2021/07/04 15:47:31;;;;;;;6.1;4.3;;;;;;;34.36;38.66699;97997.74;;;;
2021/07/04 15:57:33;;;;;;;5.7;2.7;;;;;;;35.01;36.52637;97987.38;;;;
2021/07/04 16:07:35;;;;;;;6.7;3.3;;;;;;;34.97;35.4502;97984;;;;
2021/07/04 16:17:38;;;;;;;6.2;2.9;;;;;;;35.46;34.38867;97974.8;;;;
2021/07/04 16:27:40;;;;;;;4.9;3.2;;;;;;;33.73;37.76074;97968.28;;;;
2021/07/04 16:37:43;;;;;;;4.8;2.4;;;;;;;35.96;31.76465;97973.39;;;;
2021/07/04 16:47:45;;;;;;;5.3;2.8;;;;;;;36.17;31.79102;97974.19;;;;
2021/07/04 16:57:47;;;;;;;5.8;3.1;;;;;;;35.98;32.02051;97970.88;;;;
2021/07/04 17:07:49;;;;;;;4.5;2.6;;;;;;;36.29;30.38184;97961.78;;;;
2021/07/04 17:17:52;;;;;;;6;2.7;;;;;;;32.83;35.46582;97950.77;;;;
2021/07/04 17:27:53;;;;;;;5.6;4.4;;;;;;;30.18;41.60645;97948.02;;;;
2021/07/04 17:37:58;;;;;;;5.2;3.5;;;;;;;30.75;42.625;97952.23;;;;
2021/07/04 17:47:57;;;;;;;4.7;3.2;;;;;;;32;41.13965;97941.02;;;;
2021/07/04 17:57:58;;;;;;;7.4;4.7;;;;;;;31.68;47.57324;97941.66;;;;
2021/07/04 18:08:00;;;;;;;5.3;3.2;;;;;;;30.75;48.54883;97943.88;;;;
2021/07/04 18:18:01;;;;;;;7.4;4.3;;;;;;;27.3;56.20996;97930.39;;;;
2021/07/04 18:28:03;;;;;;;6.8;5.1;;;;;;;25.45;62.70215;97926.47;;;;
2021/07/04 18:38:03;;;;;;;7.3;4.4;;;;;;;23.93;69.51563;97923.21;;;;
2021/07/04 18:48:04;;;;;;;9.2;5.3;;;;;;;22.65;79.20801;97937.33;;;;
2021/07/04 18:58:04;;;;;;;9.2;5.3;;;;;;;21.43;86.39453;97935.47;;;;
2021/07/04 19:08:05;;;;;;;7.6;4.9;;;;;;;20.82;90.15527;97944.88;;;;
2021/07/04 19:18:05;;;;;;;6.1;4.1;;;;;;;20.27;97.95117;97952.57;;;;
2021/07/04 19:28:05;;;;;;;9.3;5.3;;;;;;;19.7;97.51953;97946.06;;;;
2021/07/04 19:38:05;;;;;;;10.3;5.9;;;;;;;19.32;99.32227;97952.84;;;;
2021/07/04 19:48:06;;;;;;;7.5;5.4;;;;;;;18.91;96.6377;97952.14;;;;
2021/07/04 19:58:04;;;;;;;8;5.6;;;;;;;18.51;100;97941.22;;;;
2021/07/04 20:08:04;;;;;;;12;6.8;;;;;;;18.1;100;97934.91;;;;
2021/07/04 20:18:08;;;;;;;7;4.6;;;;;;;17.76;100;97938.78;;;;
2021/07/04 20:28:03;;;;;;;8.6;5.1;;;;;;;17.46;100;97938.72;;;;
2021/07/04 20:38:03;;;;;;;10;6.2;;;;;;;17.31;100;97939.69;;;;
2021/07/04 20:48:02;;;;;;;8.1;4.9;;;;;;;17.18;100;97957.39;;;;
2021/07/04 20:58:02;;;;;;;8.7;6;;;;;;;16.97;100;97955.13;;;;
2021/07/04 21:08:01;;;;;;;8.5;5.2;;;;;;;16.76;100;97960.2;;;;
2021/07/04 21:18:01;;;;;;;8.2;6.1;;;;;;;16.55;100;97963.31;;;;
2021/07/04 21:28:00;;;;;;;8;6.8;;;;;;;16.4;100;97953.31;;;;
2021/07/04 21:38:01;;;;;;;8.3;5.2;;;;;;;16.2;100;97952.56;;;;
2021/07/04 21:47:59;;;;;;;8.9;6.2;;;;;;;15.97;100;97962.56;;;;
2021/07/04 21:57:58;;;;;;;7.7;4.9;;;;;;;15.76;100;97965.63;;;;
2021/07/04 22:07:59;;;;;;;11.3;6.5;;;;;;;15.54;100;97958.97;;;;
2021/07/04 22:17:57;;;;;;;10.4;7.8;;;;;;;15.4;100;97952.41;;;;
2021/07/04 22:27:58;;;;;;;9.2;6.9;;;;;;;15.22;100;97946.56;;;;
2021/07/04 22:37:58;;;;;;;12.3;7.2;;;;;;;15.15;100;97951.83;;;;
2021/07/04 22:47:55;;;;;;;9.5;7.2;;;;;;;14.98;100;97966.56;;;;
2021/07/04 22:57:54;;;;;;;10;7.2;;;;;;;14.92;100;97972.61;;;;
2021/07/04 23:07:53;;;;;;;12.1;7.8;;;;;;;14.81;100;97972.34;;;;
2021/07/04 23:17:53;;;;;;;11.3;8;;;;;;;14.7;100;97967.77;;;;
2021/07/04 23:27:52;;;;;;;14.6;7.1;;;;;;;14.51;100;97958.39;;;;
2021/07/04 23:37:51;;;;;;;10.7;7.2;;;;;;;14.36;100;97944.82;;;;
2021/07/04 23:47:50;;;;;;;9.9;7;;;;;;;14.26;100;97942.59;;;;
2021/07/04 23:57:49;;;;;;;9.4;6.9;;;;;;;14.13;100;97946.5;;;;
